To NAV CANADA Home Page Login to a new session Search on AWWS site Feedback and Comments Disclaimer Vers la page française équivalente Tips FAQ What's new on the site To the Forecasts and Observations / NOTAM section To "File a Flight Plan" website Publications and other links Update of the User's profile FIC Telephone Numbers My Weather Data Folder Route Weather Data Regional Weather Data Local Weather Data To the Forecasts and Observations / NOTAM section
Request Generated 09/27/2016 at 17:10:42 UTC . Weather information available at that time is displayed.

METAR/TAF

BAKER LAKE/NU    

METAR CYBK 271700Z 12005KT 20SM BKN011 BKN120 02/M01 A3010 RMK ST5AC1
AC TR SLP194=
SPECI CYBK 271645Z 10005KT 20SM BKN011 BKN120 02/M01 A3010 RMK ST5AC1
AC TR SLP195=
METAR CYBK 271600Z 02004KT 20SM BKN009 02/M01 A3010 RMK ST6 SLP197=
SPECI CYBK 271541Z 04006KT 20SM BKN008 02/M01 A3010 RMK ST6 SLP195=
METAR CYBK 271500Z 04007KT 20SM -DZ BKN005 BKN050 01/M01 A3011 RMK
ST5SC1 SC TR SLP198=

TAF AMD CYBK 271518Z 2715/2724 03007KT P6SM BKN015 TEMPO 2715/2718
5SM -DZSN BR BKN005
BECMG 2716/2718 10010KT
RMK NXT FCST BY 271800Z=
Your time UTC time
Weather data provided by Environment Canada and NAV CANADA